createdAt,value
2018-05-10T00:00:02.922Z,50.50
2018-05-10T00:02:29.851Z,50.50
2018-05-10T00:04:56.810Z,50.70
2018-05-10T00:07:23.084Z,50.50
2018-05-10T00:09:49.315Z,50.50
2018-05-10T00:12:15.552Z,50.50
2018-05-10T00:14:41.778Z,50.50
2018-05-10T00:17:08.021Z,50.50
2018-05-10T00:19:34.258Z,50.50
2018-05-10T00:22:00.486Z,50.50
2018-05-10T00:24:26.730Z,50.50
2018-05-10T00:26:52.974Z,50.50
2018-05-10T00:29:19.940Z,50.50
2018-05-10T00:31:46.158Z,50.50
2018-05-10T00:34:13.124Z,50.50
2018-05-10T00:36:39.360Z,50.40
2018-05-10T00:39:05.589Z,51.00
2018-05-10T00:41:31.824Z,50.40
2018-05-10T00:43:58.114Z,50.50
2018-05-10T00:46:24.331Z,50.50
2018-05-10T00:48:50.540Z,50.40
2018-05-10T00:51:16.796Z,50.50
2018-05-10T00:53:43.744Z,50.50
2018-05-10T00:56:09.959Z,50.30
2018-05-10T00:58:36.167Z,50.40
2018-05-10T01:01:03.114Z,50.40
2018-05-10T01:03:30.039Z,50.50
2018-05-10T01:05:56.248Z,50.30
2018-05-10T01:08:23.263Z,50.30
2018-05-10T01:10:49.520Z,50.30
2018-05-10T01:13:15.758Z,50.20
2018-05-10T01:15:42.083Z,50.40
2018-05-10T01:18:08.303Z,50.30
2018-05-10T01:20:34.513Z,50.40
2018-05-10T01:23:00.749Z,50.20
2018-05-10T01:25:28.806Z,50.10
2018-05-10T01:27:55.804Z,50.70
2018-05-10T01:30:22.028Z,50.00
2018-05-10T01:32:48.268Z,50.10
2018-05-10T01:35:14.690Z,50.10
2018-05-10T01:37:41.478Z,50.20
2018-05-10T01:40:07.682Z,50.00
2018-05-10T01:42:33.911Z,50.10
2018-05-10T01:45:00.148Z,50.00
2018-05-10T01:47:26.382Z,50.20
2018-05-10T01:49:52.578Z,50.80
2018-05-10T01:52:18.765Z,50.10
2018-05-10T01:54:45.000Z,50.00
2018-05-10T01:57:11.940Z,50.10
2018-05-10T01:59:38.900Z,50.10
2018-05-10T02:02:05.096Z,50.10
2018-05-10T02:04:32.054Z,50.80
2018-05-10T02:06:58.248Z,50.10
2018-05-10T02:09:24.488Z,50.00
2018-05-10T02:11:50.692Z,50.00
2018-05-10T02:14:16.875Z,49.80
2018-05-10T02:16:43.822Z,49.80
2018-05-10T02:19:10.036Z,49.80
2018-05-10T02:21:36.211Z,50.00
2018-05-10T02:24:02.395Z,49.90
2018-05-10T02:26:29.371Z,49.90
2018-05-10T02:28:55.566Z,49.90
2018-05-10T02:31:22.496Z,49.90
2018-05-10T02:33:48.692Z,49.90
2018-05-10T02:36:15.640Z,49.90
2018-05-10T02:38:42.549Z,50.50
2018-05-10T02:41:08.761Z,49.90
2018-05-10T02:43:34.936Z,50.00
2018-05-10T02:46:01.110Z,49.90
2018-05-10T02:48:27.283Z,49.80
2018-05-10T02:50:54.245Z,49.90
2018-05-10T02:53:20.516Z,49.80
2018-05-10T02:55:46.716Z,49.80
2018-05-10T02:58:12.943Z,49.80
2018-05-10T03:00:39.261Z,50.70
2018-05-10T03:03:05.473Z,49.90
2018-05-10T03:05:31.745Z,50.00
2018-05-10T03:07:57.964Z,49.70
2018-05-10T03:10:24.153Z,49.80
2018-05-10T03:12:50.405Z,49.70
2018-05-10T03:15:17.552Z,49.90
2018-05-10T03:17:43.783Z,49.80
2018-05-10T03:20:10.759Z,50.40
2018-05-10T03:22:36.976Z,49.80
2018-05-10T03:25:03.947Z,49.70
2018-05-10T03:27:30.148Z,49.70
2018-05-10T03:29:57.128Z,50.50
2018-05-10T03:32:23.329Z,51.10
2018-05-10T03:34:49.539Z,50.50
2018-05-10T03:37:15.731Z,50.30
2018-05-10T03:39:42.695Z,50.50
2018-05-10T03:42:08.917Z,50.40
2018-05-10T03:44:35.149Z,50.40
2018-05-10T03:47:01.361Z,50.30
2018-05-10T03:49:28.303Z,50.30
2018-05-10T03:51:55.279Z,50.30
2018-05-10T03:54:21.467Z,50.30
2018-05-10T03:56:47.697Z,50.30
2018-05-10T03:59:13.875Z,50.30
2018-05-10T04:01:40.077Z,50.30
2018-05-10T04:04:06.276Z,50.30
2018-05-10T04:06:32.508Z,50.30
2018-05-10T04:08:59.483Z,50.30
2018-05-10T04:11:25.689Z,50.30
2018-05-10T04:13:51.893Z,50.70
2018-05-10T04:16:18.147Z,50.30
2018-05-10T04:18:44.373Z,50.30
2018-05-10T04:21:10.623Z,50.30
2018-05-10T04:23:36.815Z,50.30
2018-05-10T04:26:03.795Z,50.30
2018-05-10T04:28:30.025Z,50.30
2018-05-10T04:30:56.245Z,50.30
2018-05-10T04:33:22.447Z,50.80
2018-05-10T04:35:48.736Z,50.30
2018-05-10T04:38:15.653Z,50.30
2018-05-10T04:40:41.891Z,50.20
2018-05-10T04:43:08.831Z,50.10
2018-05-10T04:45:35.355Z,50.00
2018-05-10T04:48:02.299Z,49.90
2018-05-10T04:50:29.249Z,50.20
2018-05-10T04:52:55.488Z,50.10
2018-05-10T04:55:21.701Z,50.00
2018-05-10T04:57:47.932Z,50.00
2018-05-10T05:00:14.158Z,49.90
2018-05-10T05:02:40.383Z,50.00
2018-05-10T05:05:06.849Z,49.90
2018-05-10T05:07:33.115Z,52.30
2018-05-10T05:09:59.315Z,51.80
2018-05-10T05:12:25.497Z,52.20
2018-05-10T05:14:51.713Z,52.80
2018-05-10T05:17:17.896Z,52.00
2018-05-10T05:19:44.100Z,51.40
2018-05-10T05:22:10.309Z,51.20
2018-05-10T05:24:36.516Z,51.10
2018-05-10T05:27:02.717Z,51.20
2018-05-10T05:29:29.684Z,52.10
2018-05-10T05:31:56.614Z,51.50
2018-05-10T05:34:23.616Z,52.00
2018-05-10T05:36:50.562Z,51.80
2018-05-10T05:39:18.324Z,51.80
2018-05-10T05:41:45.294Z,51.80
2018-05-10T05:44:12.203Z,51.40
2018-05-10T05:46:39.165Z,51.80
2018-05-10T05:49:05.404Z,51.70
2018-05-10T05:51:31.600Z,51.30
2018-05-10T05:53:58.574Z,51.20
2018-05-10T05:56:24.784Z,51.10
2018-05-10T05:58:51.008Z,51.10
2018-05-10T06:01:17.233Z,51.10
2018-05-10T06:03:43.452Z,51.00
2018-05-10T06:06:09.661Z,51.50
2018-05-10T06:08:35.917Z,50.90
2018-05-10T06:11:02.088Z,50.60
2018-05-10T06:13:29.089Z,50.60
2018-05-10T06:15:55.462Z,50.60
2018-05-10T06:18:21.580Z,50.70
2018-05-10T06:20:47.791Z,50.40
2018-05-10T06:23:13.994Z,50.10
2018-05-10T06:25:40.234Z,50.00
2018-05-10T06:28:06.446Z,50.00
2018-05-10T06:30:32.749Z,49.70
2018-05-10T06:32:59.040Z,49.50
2018-05-10T06:35:25.276Z,49.20
2018-05-10T06:37:52.249Z,48.90
2018-05-10T06:40:18.549Z,48.70
2018-05-10T06:42:44.776Z,48.60
2018-05-10T06:45:11.114Z,48.40
2018-05-10T06:47:37.303Z,48.20
2018-05-10T06:50:03.609Z,47.80
2018-05-10T06:52:29.857Z,47.60
2018-05-10T06:54:56.104Z,47.30
2018-05-10T06:57:22.297Z,46.80
2018-05-10T06:59:48.542Z,46.50
2018-05-10T07:02:15.506Z,47.90
2018-05-10T07:04:41.716Z,47.30
2018-05-10T07:07:07.907Z,48.00
2018-05-10T07:09:35.089Z,48.00
2018-05-10T07:12:01.054Z,47.90
2018-05-10T07:14:28.003Z,47.10
2018-05-10T07:16:54.204Z,47.10
2018-05-10T07:19:21.720Z,47.50
2018-05-10T07:21:48.674Z,47.30
2018-05-10T07:24:15.611Z,47.30
2018-05-10T07:26:41.838Z,47.30
2018-05-10T07:29:09.824Z,47.30
2018-05-10T07:31:36.776Z,47.20
2018-05-10T07:34:03.732Z,47.20
2018-05-10T07:36:30.682Z,47.20
2018-05-10T07:38:56.964Z,47.20
2018-05-10T07:41:23.220Z,47.40
2018-05-10T07:43:49.442Z,47.10
2018-05-10T07:46:16.419Z,47.10
2018-05-10T07:48:42.646Z,47.10
2018-05-10T07:51:08.965Z,47.10
2018-05-10T07:53:35.210Z,47.10
2018-05-10T07:56:01.442Z,47.10
2018-05-10T07:58:28.386Z,47.10
2018-05-10T08:00:54.694Z,47.00
2018-05-10T08:03:21.895Z,47.10
2018-05-10T08:05:48.156Z,47.10
2018-05-10T08:08:14.386Z,47.00
2018-05-10T08:10:40.577Z,47.00
2018-05-10T08:13:06.783Z,47.30
2018-05-10T08:15:34.327Z,46.90
2018-05-10T08:18:01.369Z,46.90
2018-05-10T08:20:27.953Z,46.80
2018-05-10T08:22:56.835Z,46.90
2018-05-10T08:25:23.221Z,46.90
2018-05-10T08:27:50.213Z,46.90
2018-05-10T08:30:16.441Z,46.90
2018-05-10T08:32:42.645Z,46.90
2018-05-10T08:35:09.868Z,46.90
2018-05-10T08:37:36.853Z,46.90
2018-05-10T08:40:03.367Z,46.90
2018-05-10T08:42:30.334Z,46.90
2018-05-10T08:44:57.331Z,47.10
2018-05-10T08:47:24.273Z,46.90
2018-05-10T08:49:50.518Z,46.90
2018-05-10T08:52:16.753Z,46.90
2018-05-10T08:54:43.690Z,47.00
2018-05-10T08:57:09.937Z,47.00
2018-05-10T08:59:36.168Z,46.90
2018-05-10T09:02:03.163Z,47.00
2018-05-10T09:04:30.185Z,47.00
2018-05-10T09:06:56.399Z,46.90
2018-05-10T09:09:23.360Z,47.10
2018-05-10T09:11:49.627Z,47.00
2018-05-10T09:14:15.888Z,47.10
2018-05-10T09:16:42.112Z,47.00
2018-05-10T09:19:08.343Z,47.10
2018-05-10T09:21:34.580Z,47.20
2018-05-10T09:24:00.790Z,47.10
2018-05-10T09:26:26.989Z,47.20
2018-05-10T09:28:53.189Z,47.20
2018-05-10T09:31:19.418Z,47.30
2018-05-10T09:33:45.632Z,47.40
2018-05-10T09:36:11.850Z,47.30
2018-05-10T09:38:38.812Z,47.80
2018-05-10T09:41:06.136Z,47.20
2018-05-10T09:43:32.354Z,47.30
2018-05-10T09:45:58.576Z,47.30
2018-05-10T09:48:24.840Z,47.30
2018-05-10T09:50:52.050Z,47.60
2018-05-10T09:53:18.526Z,47.30
2018-05-10T09:55:44.815Z,47.30
2018-05-10T09:58:11.032Z,47.40
2018-05-10T10:00:37.342Z,47.40
2018-05-10T10:03:03.773Z,47.40
2018-05-10T10:05:30.140Z,47.40
2018-05-10T10:07:56.350Z,47.40
2018-05-10T10:10:22.558Z,47.40
2018-05-10T10:12:48.760Z,47.50
2018-05-10T10:15:15.021Z,47.50
2018-05-10T10:17:41.286Z,47.50
2018-05-10T10:20:08.132Z,47.30
2018-05-10T10:22:34.330Z,47.30
2018-05-10T10:25:00.676Z,47.30
2018-05-10T10:27:27.008Z,47.30
2018-05-10T10:29:53.147Z,47.40
2018-05-10T10:32:19.362Z,48.20
2018-05-10T10:34:46.290Z,47.60
2018-05-10T10:37:12.526Z,47.50
2018-05-10T10:39:38.720Z,47.40
2018-05-10T10:42:06.399Z,47.30
2018-05-10T10:44:33.357Z,47.40
2018-05-10T10:46:59.542Z,47.40
2018-05-10T10:49:25.752Z,47.30
2018-05-10T10:51:52.692Z,47.30
2018-05-10T10:54:18.930Z,47.90
2018-05-10T10:56:45.143Z,47.30
2018-05-10T10:59:11.336Z,47.30
2018-05-10T11:01:38.284Z,47.30
2018-05-10T11:04:04.485Z,47.30
2018-05-10T11:06:30.704Z,47.30
2018-05-10T11:08:56.918Z,47.30
2018-05-10T11:11:23.164Z,47.40
2018-05-10T11:13:50.152Z,48.00
2018-05-10T11:16:16.352Z,47.30
2018-05-10T11:18:43.284Z,47.40
2018-05-10T11:21:09.482Z,47.30
2018-05-10T11:23:35.742Z,47.30
2018-05-10T11:26:01.995Z,47.40
2018-05-10T11:28:28.991Z,47.40
2018-05-10T11:30:55.216Z,47.40
2018-05-10T11:33:21.584Z,47.50
2018-05-10T11:35:47.753Z,47.40
2018-05-10T11:38:14.045Z,47.60
2018-05-10T11:40:41.009Z,48.40
2018-05-10T11:43:07.976Z,47.60
2018-05-10T11:45:34.213Z,47.60
2018-05-10T11:48:00.423Z,47.60
2018-05-10T11:50:26.681Z,47.60
2018-05-10T11:52:52.969Z,47.60
2018-05-10T11:55:19.318Z,47.60
2018-05-10T11:57:46.313Z,47.70
2018-05-10T12:00:12.553Z,47.60
2018-05-10T12:02:38.806Z,47.70
2018-05-10T12:05:06.007Z,47.80
2018-05-10T12:07:32.253Z,47.80
2018-05-10T12:09:58.570Z,47.80
2018-05-10T12:12:24.775Z,47.90
2018-05-10T12:14:51.006Z,47.70
2018-05-10T12:17:17.212Z,49.30
2018-05-10T12:19:44.173Z,53.00
2018-05-10T12:22:11.127Z,59.90
2018-05-10T12:24:38.100Z,63.80
2018-05-10T12:27:04.373Z,63.80
2018-05-10T12:29:30.584Z,61.40
2018-05-10T12:31:57.979Z,59.00
2018-05-10T12:34:24.220Z,58.90
2018-05-10T12:36:50.436Z,58.30
2018-05-10T12:39:16.700Z,58.60
2018-05-10T12:41:43.719Z,58.20
2018-05-10T12:44:09.881Z,58.20
2018-05-10T12:46:36.073Z,58.20
2018-05-10T12:49:03.010Z,58.20
2018-05-10T12:51:29.283Z,58.20
2018-05-10T12:53:55.575Z,57.80
2018-05-10T12:56:22.660Z,57.80
2018-05-10T12:58:48.871Z,57.80
2018-05-10T13:01:15.101Z,57.60
2018-05-10T13:03:41.349Z,57.30
2018-05-10T13:06:07.989Z,57.30
2018-05-10T13:08:34.321Z,57.30
2018-05-10T13:11:00.555Z,57.50
2018-05-10T13:13:27.399Z,57.60
2018-05-10T13:15:53.595Z,57.40
2018-05-10T13:18:20.581Z,57.70
2018-05-10T13:20:47.079Z,57.10
2018-05-10T13:23:13.337Z,56.80
2018-05-10T13:25:39.510Z,56.60
2018-05-10T13:28:05.710Z,56.40
2018-05-10T13:30:32.466Z,56.40
2018-05-10T13:32:58.787Z,56.30
2018-05-10T13:35:24.976Z,56.20
2018-05-10T13:37:51.973Z,56.40
2018-05-10T13:40:18.224Z,56.40
2018-05-10T13:42:45.290Z,56.50
2018-05-10T13:45:11.551Z,56.40
2018-05-10T13:47:37.944Z,56.60
2018-05-10T13:50:04.048Z,56.70
2018-05-10T13:52:32.371Z,56.90
2018-05-10T13:54:59.309Z,57.70
2018-05-10T13:57:25.569Z,57.70
2018-05-10T13:59:51.864Z,58.30
2018-05-10T14:02:18.176Z,57.60
2018-05-10T14:04:44.419Z,57.70
2018-05-10T14:07:11.369Z,57.60
2018-05-10T14:09:38.282Z,57.70
2018-05-10T14:12:05.481Z,57.60
2018-05-10T14:14:32.392Z,58.10
2018-05-10T14:16:58.550Z,58.00
2018-05-10T14:19:24.686Z,57.80
2018-05-10T14:21:50.861Z,57.90
2018-05-10T14:24:17.018Z,58.00
2018-05-10T14:26:43.911Z,58.00
2018-05-10T14:29:10.137Z,57.90
2018-05-10T14:31:37.018Z,58.00
2018-05-10T14:34:03.944Z,58.00
2018-05-10T14:36:30.170Z,57.90
2018-05-10T14:38:56.361Z,58.10
2018-05-10T14:41:22.576Z,58.00
2018-05-10T14:43:48.790Z,58.00
2018-05-10T14:46:15.099Z,57.90
2018-05-10T14:48:42.029Z,57.90
2018-05-10T14:51:08.238Z,57.90
2018-05-10T14:53:34.470Z,58.00
2018-05-10T14:56:00.776Z,58.00
2018-05-10T14:58:27.047Z,58.00
2018-05-10T15:00:53.292Z,58.20
2018-05-10T15:03:19.529Z,57.90
2018-05-10T15:05:45.783Z,57.90
2018-05-10T15:08:12.760Z,58.00
2018-05-10T15:10:39.783Z,57.90
2018-05-10T15:13:06.072Z,58.50
2018-05-10T15:15:32.484Z,58.00
2018-05-10T15:17:58.679Z,58.50
2018-05-10T15:20:24.906Z,57.90
2018-05-10T15:22:51.130Z,57.90
2018-05-10T15:25:17.379Z,57.90
2018-05-10T15:27:43.599Z,57.70
2018-05-10T15:30:09.841Z,57.90
2018-05-10T15:32:36.065Z,58.60
2018-05-10T15:35:02.382Z,58.60
2018-05-10T15:37:28.584Z,58.70
2018-05-10T15:39:55.454Z,58.80
2018-05-10T15:42:21.808Z,58.60
2018-05-10T15:44:48.797Z,59.40
2018-05-10T15:47:15.015Z,59.40
2018-05-10T15:49:41.333Z,59.20
2018-05-10T15:52:07.535Z,58.70
2018-05-10T15:54:33.783Z,58.70
2018-05-10T15:56:59.984Z,59.20
2018-05-10T15:59:26.273Z,59.50
2018-05-10T16:01:52.430Z,59.60
2018-05-10T16:04:18.680Z,59.30
2018-05-10T16:06:44.951Z,59.20
2018-05-10T16:09:11.909Z,59.40
2018-05-10T16:11:38.123Z,59.40
2018-05-10T16:14:05.112Z,59.80
2018-05-10T16:16:31.396Z,59.80
2018-05-10T16:18:57.607Z,60.40
2018-05-10T16:21:23.889Z,60.90
2018-05-10T16:23:50.098Z,61.70
2018-05-10T16:26:16.289Z,62.10
2018-05-10T16:29:55.673Z,55.70
2018-05-10T16:32:21.881Z,56.10
2018-05-10T16:34:48.102Z,56.50
2018-05-10T16:37:14.309Z,56.70
2018-05-10T16:39:40.516Z,57.20
2018-05-10T16:42:06.733Z,57.50
2018-05-10T16:44:33.775Z,57.90
2018-05-10T16:47:00.031Z,57.90
2018-05-10T16:49:26.235Z,58.40
2018-05-10T16:51:52.543Z,58.80
2018-05-10T16:54:19.482Z,58.30
2018-05-10T16:56:45.751Z,58.30
2018-05-10T16:59:13.283Z,58.40
2018-05-10T17:01:39.500Z,58.10
2018-05-10T17:04:05.692Z,58.00
2018-05-10T17:06:31.916Z,58.00
2018-05-10T17:08:58.173Z,57.80
2018-05-10T17:11:25.100Z,57.40
2018-05-10T17:13:52.061Z,58.00
2018-05-10T17:16:18.295Z,58.00
2018-05-10T17:18:44.532Z,58.00
2018-05-10T17:21:11.525Z,57.90
2018-05-10T17:23:38.504Z,57.40
2018-05-10T17:26:05.513Z,57.70
2018-05-10T17:28:31.770Z,57.60
2018-05-10T17:30:58.799Z,57.40
2018-05-10T17:33:25.728Z,57.40
2018-05-10T17:35:51.935Z,57.40
2018-05-10T17:38:18.158Z,57.40
2018-05-10T17:40:44.386Z,57.40
2018-05-10T17:43:10.594Z,57.70
2018-05-10T17:45:37.556Z,57.40
2018-05-10T17:48:03.894Z,57.30
2018-05-10T17:50:30.160Z,57.30
2018-05-10T17:52:57.137Z,56.80
2018-05-10T17:55:24.124Z,56.80
2018-05-10T17:57:50.323Z,56.80
2018-05-10T18:00:16.532Z,57.10
2018-05-10T18:02:43.469Z,56.70
2018-05-10T18:05:09.665Z,56.60
2018-05-10T18:07:35.874Z,56.70
2018-05-10T18:10:02.103Z,56.70
2018-05-10T18:12:28.324Z,56.40
2018-05-10T18:14:54.568Z,56.50
2018-05-10T18:17:20.744Z,56.60
2018-05-10T18:19:47.723Z,56.10
2018-05-10T18:22:14.758Z,56.20
2018-05-10T18:24:41.770Z,56.40
2018-05-10T18:27:07.997Z,56.30
2018-05-10T18:29:34.663Z,56.50
2018-05-10T18:32:01.623Z,56.20
2018-05-10T18:34:27.843Z,56.10
2018-05-10T18:36:54.058Z,56.10
2018-05-10T18:39:20.997Z,55.80
2018-05-10T18:41:47.953Z,55.90
2018-05-10T18:44:14.160Z,55.90
2018-05-10T18:46:41.133Z,56.20
2018-05-10T18:49:07.358Z,56.20
2018-05-10T18:51:33.605Z,55.90
2018-05-10T18:53:59.870Z,55.80
2018-05-10T18:56:27.806Z,55.80
2018-05-10T18:58:54.005Z,55.70
2018-05-10T19:01:21.004Z,55.80
2018-05-10T19:03:47.201Z,55.70
2018-05-10T19:06:13.784Z,55.80
2018-05-10T19:08:40.032Z,55.70
2018-05-10T19:11:06.252Z,55.70
2018-05-10T19:13:32.487Z,55.70
2018-05-10T19:15:58.750Z,55.70
2018-05-10T19:18:24.982Z,55.70
2018-05-10T19:20:51.276Z,55.60
2018-05-10T19:23:17.412Z,55.60
2018-05-10T19:25:43.672Z,55.40
2018-05-10T19:28:10.655Z,55.30
2018-05-10T19:30:36.876Z,55.30
2018-05-10T19:33:03.090Z,55.30
2018-05-10T19:35:29.309Z,55.30
2018-05-10T19:37:55.511Z,55.20
2018-05-10T19:40:22.499Z,55.20
2018-05-10T19:42:48.754Z,55.20
2018-05-10T19:45:15.037Z,55.30
2018-05-10T19:47:41.199Z,55.10
2018-05-10T19:50:15.123Z,55.00
2018-05-10T19:52:41.350Z,55.00
2018-05-10T19:55:07.612Z,55.00
2018-05-10T19:57:34.568Z,54.80
2018-05-10T20:00:00.770Z,54.80
2018-05-10T20:02:26.970Z,54.90
2018-05-10T20:04:53.912Z,54.80
2018-05-10T20:07:20.149Z,54.80
2018-05-10T20:09:46.362Z,54.80
2018-05-10T20:12:12.564Z,54.90
2018-05-10T20:14:39.519Z,54.80
2018-05-10T20:17:05.724Z,54.80
2018-05-10T20:19:31.900Z,54.80
2018-05-10T20:21:58.111Z,54.70
2018-05-10T20:24:24.310Z,54.50
2018-05-10T20:26:50.508Z,54.60
2018-05-10T20:29:16.726Z,54.60
2018-05-10T20:31:43.666Z,54.50
2018-05-10T20:34:10.618Z,55.10
2018-05-10T20:36:36.837Z,54.50
2018-05-10T20:39:03.795Z,54.50
2018-05-10T20:41:30.014Z,54.50
2018-05-10T20:43:56.220Z,54.40
2018-05-10T20:46:22.941Z,54.50
2018-05-10T20:48:49.183Z,54.50
2018-05-10T20:51:22.229Z,54.40
2018-05-10T20:53:49.199Z,54.40
2018-05-10T20:56:16.234Z,54.40
2018-05-10T20:58:42.755Z,54.40
2018-05-10T21:01:09.694Z,54.40
2018-05-10T21:03:36.636Z,54.40
2018-05-10T21:06:02.943Z,54.30
2018-05-10T21:08:29.172Z,54.40
2018-05-10T21:10:55.377Z,54.30
2018-05-10T21:13:21.564Z,54.40
2018-05-10T21:15:48.003Z,54.50
2018-05-10T21:18:14.254Z,54.60
2018-05-10T21:20:40.510Z,54.80
2018-05-10T21:23:07.513Z,54.80
2018-05-10T21:25:33.690Z,54.80
2018-05-10T21:28:00.654Z,54.70
2018-05-10T21:30:26.853Z,54.60
2018-05-10T21:32:54.962Z,55.00
2018-05-10T21:35:22.009Z,54.90
2018-05-10T21:37:49.562Z,55.00
2018-05-10T21:40:15.833Z,55.00
2018-05-10T21:42:42.769Z,54.90
2018-05-10T21:45:08.947Z,54.90
2018-05-10T21:47:35.871Z,55.00
2018-05-10T21:50:05.311Z,55.00
2018-05-10T21:52:31.534Z,54.80
2018-05-10T21:54:58.490Z,54.90
2018-05-10T21:57:24.686Z,54.80
2018-05-10T21:59:51.626Z,54.90
2018-05-10T22:02:17.836Z,54.90
2018-05-10T22:04:44.036Z,55.10
2018-05-10T22:07:10.226Z,54.80
2018-05-10T22:09:36.449Z,54.90
2018-05-10T22:12:02.676Z,54.80
2018-05-10T22:14:29.633Z,54.80
2018-05-10T22:16:55.856Z,54.80
2018-05-10T22:19:22.783Z,54.70
2018-05-10T22:21:48.950Z,54.70
2018-05-10T22:24:15.145Z,54.70
2018-05-10T22:26:41.360Z,54.80
2018-05-10T22:29:07.574Z,54.70
2018-05-10T22:31:33.804Z,54.80
2018-05-10T22:34:00.010Z,54.80
2018-05-10T22:36:26.972Z,54.50
2018-05-10T22:38:53.960Z,54.50
2018-05-10T22:41:20.137Z,54.50
2018-05-10T22:43:47.054Z,54.50
2018-05-10T22:46:13.517Z,54.50
2018-05-10T22:48:39.739Z,54.40
2018-05-10T22:51:05.930Z,54.40
2018-05-10T22:53:32.148Z,54.40
2018-05-10T22:55:58.344Z,54.40
2018-05-10T22:58:24.537Z,54.30
2018-05-10T23:00:51.475Z,54.30
2018-05-10T23:03:18.415Z,54.20
2018-05-10T23:05:45.373Z,54.40
2018-05-10T23:08:11.571Z,54.30
2018-05-10T23:10:37.785Z,54.20
2018-05-10T23:13:04.741Z,54.10
2018-05-10T23:15:30.969Z,54.10
2018-05-10T23:17:57.913Z,54.70
2018-05-10T23:20:24.108Z,54.10
2018-05-10T23:22:50.315Z,54.00
2018-05-10T23:25:16.538Z,54.00
2018-05-10T23:27:42.761Z,54.00
2018-05-10T23:30:08.945Z,54.00
2018-05-10T23:32:35.160Z,54.00
2018-05-10T23:35:01.323Z,53.90
2018-05-10T23:37:27.536Z,53.90
2018-05-10T23:39:54.453Z,53.90
2018-05-10T23:42:20.641Z,53.80
2018-05-10T23:44:46.861Z,53.90
2018-05-10T23:47:13.843Z,53.90
2018-05-10T23:49:40.123Z,53.90
2018-05-10T23:52:06.321Z,53.80
2018-05-10T23:54:32.525Z,53.90
2018-05-10T23:56:58.719Z,53.80
2018-05-10T23:59:24.918Z,53.90
